sensor_id;sensor_type;location;lat;lon;timestamp;pressure;altitude;pressure_sealevel;temperature;humidity
9905;BME280;4991;43.566;27.820;2023-04-24T00:00:14;98741.75;;;7.32;100.00
9905;BME280;4991;43.566;27.820;2023-04-24T00:02:41;98741.97;;;7.41;100.00
9905;BME280;4991;43.566;27.820;2023-04-24T00:05:11;98733.78;;;7.46;100.00
9905;BME280;4991;43.566;27.820;2023-04-24T00:07:38;98735.63;;;7.50;100.00
9905;BME280;4991;43.566;27.820;2023-04-24T00:10:03;98733.16;;;7.54;100.00
9905;BME280;4991;43.566;27.820;2023-04-24T00:12:30;98730.41;;;7.59;100.00
9905;BME280;4991;43.566;27.820;2023-04-24T00:14:56;98729.03;;;7.61;100.00
9905;BME280;4991;43.566;27.820;2023-04-24T00:17:21;98736.91;;;7.58;100.00
9905;BME280;4991;43.566;27.820;2023-04-24T00:19:48;98728.09;;;7.47;100.00
9905;BME280;4991;43.566;27.820;2023-04-24T00:22:14;98733.34;;;7.34;100.00
9905;BME280;4991;43.566;27.820;2023-04-24T00:24:40;98738.31;;;7.22;100.00
9905;BME280;4991;43.566;27.820;2023-04-24T00:27:06;98724.31;;;7.10;100.00
9905;BME280;4991;43.566;27.820;2023-04-24T00:29:31;98723.81;;;7.08;100.00
9905;BME280;4991;43.566;27.820;2023-04-24T00:31:57;98720.50;;;7.16;100.00
9905;BME280;4991;43.566;27.820;2023-04-24T00:34:23;98725.06;;;7.20;100.00
9905;BME280;4991;43.566;27.820;2023-04-24T00:36:48;98721.41;;;7.06;100.00
9905;BME280;4991;43.566;27.820;2023-04-24T00:39:20;98723.00;;;7.07;100.00
9905;BME280;4991;43.566;27.820;2023-04-24T00:41:46;98719.31;;;6.93;100.00
9905;BME280;4991;43.566;27.820;2023-04-24T00:44:13;98724.47;;;6.95;100.00
9905;BME280;4991;43.566;27.820;2023-04-24T00:46:39;98729.13;;;6.84;100.00
9905;BME280;4991;43.566;27.820;2023-04-24T00:49:05;98710.50;;;6.78;100.00
9905;BME280;4991;43.566;27.820;2023-04-24T00:51:32;98716.94;;;6.87;100.00
9905;BME280;4991;43.566;27.820;2023-04-24T00:53:58;98719.63;;;6.87;100.00
9905;BME280;4991;43.566;27.820;2023-04-24T00:56:24;98714.19;;;6.92;100.00
9905;BME280;4991;43.566;27.820;2023-04-24T00:58:51;98717.19;;;6.90;100.00
9905;BME280;4991;43.566;27.820;2023-04-24T01:01:17;98716.41;;;6.85;100.00
9905;BME280;4991;43.566;27.820;2023-04-24T01:03:46;98719.63;;;6.87;100.00
9905;BME280;4991;43.566;27.820;2023-04-24T01:06:12;98710.72;;;6.86;100.00
9905;BME280;4991;43.566;27.820;2023-04-24T01:08:39;98724.53;;;6.85;100.00
9905;BME280;4991;43.566;27.820;2023-04-24T01:11:06;98716.13;;;6.86;100.00
9905;BME280;4991;43.566;27.820;2023-04-24T01:13:33;98710.72;;;6.86;100.00
9905;BME280;4991;43.566;27.820;2023-04-24T01:15:59;98714.22;;;6.87;100.00
9905;BME280;4991;43.566;27.820;2023-04-24T01:18:26;98713.81;;;6.70;100.00
9905;BME280;4991;43.566;27.820;2023-04-24T01:20:57;98730.63;;;6.62;100.00
9905;BME280;4991;43.566;27.820;2023-04-24T01:23:23;98727.69;;;6.58;100.00
9905;BME280;4991;43.566;27.820;2023-04-24T01:25:50;98727.66;;;6.63;100.00
9905;BME280;4991;43.566;27.820;2023-04-24T01:28:16;98724.69;;;6.60;100.00
9905;BME280;4991;43.566;27.820;2023-04-24T01:30:43;98728.19;;;6.60;100.00
9905;BME280;4991;43.566;27.820;2023-04-24T01:33:09;98721.19;;;6.54;100.00
9905;BME280;4991;43.566;27.820;2023-04-24T01:35:36;98718.75;;;6.57;100.00
9905;BME280;4991;43.566;27.820;2023-04-24T01:38:03;98710.84;;;6.66;100.00
9905;BME280;4991;43.566;27.820;2023-04-24T01:40:28;98713.00;;;6.69;100.00
9905;BME280;4991;43.566;27.820;2023-04-24T01:42:54;98705.16;;;6.68;100.00
9905;BME280;4991;43.566;27.820;2023-04-24T01:45:20;98701.09;;;6.65;100.00
9905;BME280;4991;43.566;27.820;2023-04-24T01:47:46;98702.00;;;6.50;100.00
9905;BME280;4991;43.566;27.820;2023-04-24T01:50:12;98703.91;;;6.50;100.00
9905;BME280;4991;43.566;27.820;2023-04-24T01:52:37;98702.50;;;6.63;100.00
9905;BME280;4991;43.566;27.820;2023-04-24T01:55:04;98701.59;;;6.72;100.00
9905;BME280;4991;43.566;27.820;2023-04-24T01:57:31;98707.28;;;6.76;100.00
9905;BME280;4991;43.566;27.820;2023-04-24T01:59:57;98699.44;;;6.74;100.00
9905;BME280;4991;43.566;27.820;2023-04-24T02:02:23;98703.72;;;6.80;100.00
9905;BME280;4991;43.566;27.820;2023-04-24T02:04:55;98708.56;;;6.83;100.00
9905;BME280;4991;43.566;27.820;2023-04-24T02:07:21;98693.94;;;6.84;100.00
9905;BME280;4991;43.566;27.820;2023-04-24T02:09:46;98697.69;;;6.88;100.00
9905;BME280;4991;43.566;27.820;2023-04-24T02:12:13;98709.34;;;6.89;100.00
9905;BME280;4991;43.566;27.820;2023-04-24T02:14:38;98696.66;;;6.84;100.00
9905;BME280;4991;43.566;27.820;2023-04-24T02:17:04;98699.78;;;6.63;100.00
9905;BME280;4991;43.566;27.820;2023-04-24T02:19:30;98696.59;;;6.50;100.00
9905;BME280;4991;43.566;27.820;2023-04-24T02:21:56;98694.25;;;6.39;100.00
9905;BME280;4991;43.566;27.820;2023-04-24T02:24:21;98693.22;;;6.30;100.00
9905;BME280;4991;43.566;27.820;2023-04-24T02:26:47;98695.16;;;6.19;100.00
9905;BME280;4991;43.566;27.820;2023-04-24T02:29:13;98698.66;;;6.25;100.00
9905;BME280;4991;43.566;27.820;2023-04-24T02:31:38;98690.75;;;6.28;100.00
9905;BME280;4991;43.566;27.820;2023-04-24T02:34:04;98692.41;;;6.29;100.00
9905;BME280;4991;43.566;27.820;2023-04-24T02:36:29;98693.75;;;6.27;100.00
9905;BME280;4991;43.566;27.820;2023-04-24T02:38:55;98690.00;;;6.23;100.00
9905;BME280;4991;43.566;27.820;2023-04-24T02:41:21;98696.03;;;6.10;100.00
9905;BME280;4991;43.566;27.820;2023-04-24T02:43:47;98697.09;;;6.04;100.00
9905;BME280;4991;43.566;27.820;2023-04-24T02:46:12;98691.41;;;6.05;100.00
9905;BME280;4991;43.566;27.820;2023-04-24T02:48:38;98692.25;;;6.01;100.00
9905;BME280;4991;43.566;27.820;2023-04-24T02:51:04;98682.25;;;6.06;100.00
9905;BME280;4991;43.566;27.820;2023-04-24T02:53:30;98694.09;;;6.10;100.00
9905;BME280;4991;43.566;27.820;2023-04-24T02:55:56;98685.19;;;6.10;100.00
9905;BME280;4991;43.566;27.820;2023-04-24T02:58:22;98697.03;;;6.19;100.00
9905;BME280;4991;43.566;27.820;2023-04-24T03:00:48;98692.44;;;6.19;100.00
9905;BME280;4991;43.566;27.820;2023-04-24T03:03:14;98693.34;;;6.05;100.00
9905;BME280;4991;43.566;27.820;2023-04-24T03:05:40;98697.66;;;6.01;100.00
9905;BME280;4991;43.566;27.820;2023-04-24T03:08:05;98696.81;;;6.05;100.00
9905;BME280;4991;43.566;27.820;2023-04-24T03:10:31;98694.91;;;6.16;100.00
9905;BME280;4991;43.566;27.820;2023-04-24T03:12:57;98695.69;;;6.21;100.00
9905;BME280;4991;43.566;27.820;2023-04-24T03:15:23;98699.97;;;6.27;100.00
9905;BME280;4991;43.566;27.820;2023-04-24T03:17:48;98696.75;;;6.25;100.00
9905;BME280;4991;43.566;27.820;2023-04-24T03:20:14;98707.25;;;6.32;100.00
9905;BME280;4991;43.566;27.820;2023-04-24T03:22:40;98704.06;;;6.25;100.00
9905;BME280;4991;43.566;27.820;2023-04-24T03:25:06;98698.13;;;6.18;100.00
9905;BME280;4991;43.566;27.820;2023-04-24T03:27:33;98698.97;;;6.13;100.00
9905;BME280;4991;43.566;27.820;2023-04-24T03:29:58;98705.72;;;6.16;100.00
9905;BME280;4991;43.566;27.820;2023-04-24T03:32:25;98708.13;;;6.17;100.00
9905;BME280;4991;43.566;27.820;2023-04-24T03:34:50;98705.41;;;6.22;100.00
9905;BME280;4991;43.566;27.820;2023-04-24T03:37:16;98701.06;;;6.26;100.00
9905;BME280;4991;43.566;27.820;2023-04-24T03:39:42;98700.25;;;6.26;100.00
9905;BME280;4991;43.566;27.820;2023-04-24T03:42:08;98702.38;;;6.34;100.00
9905;BME280;4991;43.566;27.820;2023-04-24T03:44:34;98703.13;;;6.44;100.00
9905;BME280;4991;43.566;27.820;2023-04-24T03:47:00;98697.94;;;6.58;100.00
9905;BME280;4991;43.566;27.820;2023-04-24T03:49:26;98702.72;;;6.71;100.00
9905;BME280;4991;43.566;27.820;2023-04-24T03:51:51;98700.97;;;6.85;100.00
9905;BME280;4991;43.566;27.820;2023-04-24T03:54:18;98697.41;;;6.95;100.00
9905;BME280;4991;43.566;27.820;2023-04-24T03:56:44;98701.66;;;7.01;100.00
9905;BME280;4991;43.566;27.820;2023-04-24T03:59:10;98704.53;;;7.14;100.00
9905;BME280;4991;43.566;27.820;2023-04-24T04:01:36;98699.03;;;7.24;100.00
9905;BME280;4991;43.566;27.820;2023-04-24T04:04:03;98703.69;;;7.19;100.00
9905;BME280;4991;43.566;27.820;2023-04-24T04:06:29;98711.25;;;7.22;100.00
9905;BME280;4991;43.566;27.820;2023-04-24T04:08:56;98704.66;;;7.33;100.00
9905;BME280;4991;43.566;27.820;2023-04-24T04:11:23;98711.25;;;7.50;100.00
9905;BME280;4991;43.566;27.820;2023-04-24T04:13:48;98710.91;;;7.57;100.00
9905;BME280;4991;43.566;27.820;2023-04-24T04:16:14;98712.47;;;7.63;100.00
9905;BME280;4991;43.566;27.820;2023-04-24T04:18:42;98715.81;;;7.55;100.00
9905;BME280;4991;43.566;27.820;2023-04-24T04:21:08;98714.09;;;7.64;100.00
9905;BME280;4991;43.566;27.820;2023-04-24T04:23:33;98710.69;;;7.53;100.00
9905;BME280;4991;43.566;27.820;2023-04-24T04:25:59;98711.50;;;7.54;100.00
9905;BME280;4991;43.566;27.820;2023-04-24T04:28:25;98701.97;;;7.56;100.00
9905;BME280;4991;43.566;27.820;2023-04-24T04:30:51;98707.81;;;7.68;100.00
9905;BME280;4991;43.566;27.820;2023-04-24T04:33:21;98708.00;;;7.77;100.00
9905;BME280;4991;43.566;27.820;2023-04-24T04:35:47;98706.84;;;7.83;100.00
9905;BME280;4991;43.566;27.820;2023-04-24T04:38:22;98704.31;;;7.92;100.00
9905;BME280;4991;43.566;27.820;2023-04-24T04:40:48;98700.66;;;8.01;100.00
9905;BME280;4991;43.566;27.820;2023-04-24T04:43:13;98707.00;;;8.15;100.00
9905;BME280;4991;43.566;27.820;2023-04-24T04:45:40;98704.72;;;8.27;100.00
9905;BME280;4991;43.566;27.820;2023-04-24T04:48:08;98697.25;;;8.38;100.00
9905;BME280;4991;43.566;27.820;2023-04-24T04:50:35;98702.75;;;8.51;100.00
9905;BME280;4991;43.566;27.820;2023-04-24T04:53:00;98703.22;;;8.58;100.00
9905;BME280;4991;43.566;27.820;2023-04-24T04:55:26;98705.19;;;8.71;100.00
9905;BME280;4991;43.566;27.820;2023-04-24T04:57:52;98706.16;;;8.80;100.00
9905;BME280;4991;43.566;27.820;2023-04-24T05:00:18;98705.72;;;8.92;100.00
9905;BME280;4991;43.566;27.820;2023-04-24T05:02:44;98705.25;;;9.03;100.00
9905;BME280;4991;43.566;27.820;2023-04-24T05:05:10;98697.72;;;9.14;100.00
9905;BME280;4991;43.566;27.820;2023-04-24T05:07:35;98701.63;;;9.27;100.00
9905;BME280;4991;43.566;27.820;2023-04-24T05:10:01;98690.38;;;9.33;100.00
9905;BME280;4991;43.566;27.820;2023-04-24T05:12:27;98679.78;;;9.45;100.00
9905;BME280;4991;43.566;27.820;2023-04-24T05:14:52;98684.75;;;9.57;100.00
9905;BME280;4991;43.566;27.820;2023-04-24T05:17:18;98684.88;;;9.65;100.00
9905;BME280;4991;43.566;27.820;2023-04-24T05:19:44;98685.50;;;9.76;100.00
9905;BME280;4991;43.566;27.820;2023-04-24T05:22:10;98687.41;;;9.89;100.00
9905;BME280;4991;43.566;27.820;2023-04-24T05:24:36;98685.63;;;9.98;100.00
9905;BME280;4991;43.566;27.820;2023-04-24T05:27:03;98690.88;;;10.08;100.00
9905;BME280;4991;43.566;27.820;2023-04-24T05:29:32;98678.47;;;10.15;100.00
9905;BME280;4991;43.566;27.820;2023-04-24T05:31:59;98679.88;;;10.26;100.00
9905;BME280;4991;43.566;27.820;2023-04-24T05:34:25;98677.94;;;10.40;100.00
9905;BME280;4991;43.566;27.820;2023-04-24T05:36:51;98674.06;;;10.55;100.00
9905;BME280;4991;43.566;27.820;2023-04-24T05:39:17;98676.56;;;10.65;100.00
9905;BME280;4991;43.566;27.820;2023-04-24T05:41:43;98680.66;;;10.76;100.00
9905;BME280;4991;43.566;27.820;2023-04-24T05:44:09;98678.22;;;10.88;100.00
9905;BME280;4991;43.566;27.820;2023-04-24T05:46:34;98678.78;;;10.99;100.00
9905;BME280;4991;43.566;27.820;2023-04-24T05:49:00;98674.19;;;11.08;100.00
9905;BME280;4991;43.566;27.820;2023-04-24T05:51:26;98677.78;;;11.17;100.00
9905;BME280;4991;43.566;27.820;2023-04-24T05:53:51;98684.28;;;11.29;100.00
9905;BME280;4991;43.566;27.820;2023-04-24T05:56:18;98681.63;;;11.38;100.00
9905;BME280;4991;43.566;27.820;2023-04-24T05:58:43;98684.22;;;11.43;100.00
9905;BME280;4991;43.566;27.820;2023-04-24T06:01:09;98677.53;;;11.49;100.00
9905;BME280;4991;43.566;27.820;2023-04-24T06:03:35;98676.13;;;11.60;100.00
9905;BME280;4991;43.566;27.820;2023-04-24T06:06:00;98678.31;;;11.72;100.00
9905;BME280;4991;43.566;27.820;2023-04-24T06:08:26;98676.13;;;11.82;100.00
9905;BME280;4991;43.566;27.820;2023-04-24T06:10:51;98677.44;;;11.93;100.00
9905;BME280;4991;43.566;27.820;2023-04-24T06:13:17;98678.13;;;11.99;100.00
9905;BME280;4991;43.566;27.820;2023-04-24T06:15:43;98687.44;;;12.06;100.00
9905;BME280;4991;43.566;27.820;2023-04-24T06:18:09;98673.81;;;12.15;100.00
9905;BME280;4991;43.566;27.820;2023-04-24T06:20:36;98680.09;;;12.24;100.00
9905;BME280;4991;43.566;27.820;2023-04-24T06:23:01;98674.34;;;12.34;100.00
9905;BME280;4991;43.566;27.820;2023-04-24T06:25:28;98680.97;;;12.41;100.00
9905;BME280;4991;43.566;27.820;2023-04-24T06:27:54;98671.97;;;12.49;100.00
9905;BME280;4991;43.566;27.820;2023-04-24T06:30:20;98674.41;;;12.59;100.00
9905;BME280;4991;43.566;27.820;2023-04-24T06:32:46;98671.53;;;12.73;100.00
9905;BME280;4991;43.566;27.820;2023-04-24T06:35:11;98669.59;;;12.82;100.00
9905;BME280;4991;43.566;27.820;2023-04-24T06:37:39;98667.66;;;12.91;100.00
9905;BME280;4991;43.566;27.820;2023-04-24T06:40:06;98670.28;;;13.05;100.00
9905;BME280;4991;43.566;27.820;2023-04-24T06:42:32;98669.78;;;13.11;100.00
9905;BME280;4991;43.566;27.820;2023-04-24T06:44:57;98667.03;;;13.20;100.00
9905;BME280;4991;43.566;27.820;2023-04-24T06:47:23;98667.97;;;13.24;100.00
9905;BME280;4991;43.566;27.820;2023-04-24T06:49:49;98671.84;;;13.31;100.00
9905;BME280;4991;43.566;27.820;2023-04-24T06:52:16;98672.63;;;13.40;100.00
9905;BME280;4991;43.566;27.820;2023-04-24T06:54:41;98677.59;;;13.47;100.00
9905;BME280;4991;43.566;27.820;2023-04-24T06:57:08;98675.50;;;13.52;100.00
9905;BME280;4991;43.566;27.820;2023-04-24T06:59:34;98677.88;;;13.62;100.00
9905;BME280;4991;43.566;27.820;2023-04-24T07:01:59;98674.97;;;13.67;100.00
9905;BME280;4991;43.566;27.820;2023-04-24T07:04:25;98669.34;;;13.72;100.00
9905;BME280;4991;43.566;27.820;2023-04-24T07:06:51;98677.22;;;13.74;100.00
9905;BME280;4991;43.566;27.820;2023-04-24T07:09:16;98681.84;;;13.82;100.00
9905;BME280;4991;43.566;27.820;2023-04-24T07:11:44;98678.41;;;13.93;100.00
9905;BME280;4991;43.566;27.820;2023-04-24T07:14:11;98675.50;;;13.98;100.00
9905;BME280;4991;43.566;27.820;2023-04-24T07:16:36;98676.72;;;14.09;100.00
9905;BME280;4991;43.566;27.820;2023-04-24T07:19:02;98673.03;;;14.14;100.00
9905;BME280;4991;43.566;27.820;2023-04-24T07:21:28;98675.72;;;14.22;100.00
9905;BME280;4991;43.566;27.820;2023-04-24T07:23:57;98678.91;;;14.24;100.00
9905;BME280;4991;43.566;27.820;2023-04-24T07:26:22;98676.16;;;14.33;100.00
9905;BME280;4991;43.566;27.820;2023-04-24T07:28:48;98683.28;;;14.34;100.00
9905;BME280;4991;43.566;27.820;2023-04-24T07:31:14;98667.28;;;14.36;100.00
9905;BME280;4991;43.566;27.820;2023-04-24T07:33:40;98678.34;;;14.48;100.00
9905;BME280;4991;43.566;27.820;2023-04-24T07:36:05;98680.41;;;14.51;100.00
9905;BME280;4991;43.566;27.820;2023-04-24T07:38:31;98682.16;;;14.56;100.00
9905;BME280;4991;43.566;27.820;2023-04-24T07:40:57;98684.09;;;14.55;100.00
9905;BME280;4991;43.566;27.820;2023-04-24T07:43:23;98677.09;;;14.66;100.00
9905;BME280;4991;43.566;27.820;2023-04-24T07:45:52;98681.06;;;14.77;100.00
9905;BME280;4991;43.566;27.820;2023-04-24T07:48:17;98682.16;;;14.76;100.00
9905;BME280;4991;43.566;27.820;2023-04-24T07:50:44;98679.09;;;14.78;100.00
9905;BME280;4991;43.566;27.820;2023-04-24T07:53:09;98687.59;;;14.85;100.00
9905;BME280;4991;43.566;27.820;2023-04-24T07:55:35;98690.88;;;14.99;100.00
9905;BME280;4991;43.566;27.820;2023-04-24T07:58:01;98687.94;;;15.04;100.00
9905;BME280;4991;43.566;27.820;2023-04-24T08:00:27;98688.19;;;15.11;100.00
9905;BME280;4991;43.566;27.820;2023-04-24T08:02:52;98686.19;;;15.20;100.00
9905;BME280;4991;43.566;27.820;2023-04-24T08:05:18;98686.25;;;15.32;100.00
9905;BME280;4991;43.566;27.820;2023-04-24T08:07:45;98687.78;;;15.41;100.00
9905;BME280;4991;43.566;27.820;2023-04-24T08:10:13;98686.56;;;15.51;100.00
9905;BME280;4991;43.566;27.820;2023-04-24T08:12:40;98688.41;;;15.59;100.00
9905;BME280;4991;43.566;27.820;2023-04-24T08:15:06;98683.50;;;15.65;100.00
9905;BME280;4991;43.566;27.820;2023-04-24T08:17:34;98682.47;;;15.69;100.00
9905;BME280;4991;43.566;27.820;2023-04-24T08:20:00;98679.91;;;15.85;100.00
9905;BME280;4991;43.566;27.820;2023-04-24T08:22:27;98684.56;;;15.84;100.00
9905;BME280;4991;43.566;27.820;2023-04-24T08:24:53;98678.28;;;15.96;100.00
9905;BME280;4991;43.566;27.820;2023-04-24T08:27:19;98672.00;;;16.07;100.00
9905;BME280;4991;43.566;27.820;2023-04-24T08:29:45;98679.47;;;16.19;100.00
9905;BME280;4991;43.566;27.820;2023-04-24T08:32:11;98677.16;;;16.21;100.00
9905;BME280;4991;43.566;27.820;2023-04-24T08:34:36;98679.34;;;16.27;100.00
9905;BME280;4991;43.566;27.820;2023-04-24T08:37:02;98677.41;;;16.28;100.00
9905;BME280;4991;43.566;27.820;2023-04-24T08:39:28;98691.94;;;16.40;100.00
9905;BME280;4991;43.566;27.820;2023-04-24T08:41:55;98677.06;;;16.41;100.00
9905;BME280;4991;43.566;27.820;2023-04-24T08:44:21;98667.66;;;16.42;100.00
9905;BME280;4991;43.566;27.820;2023-04-24T08:46:50;98664.38;;;16.49;100.00
9905;BME280;4991;43.566;27.820;2023-04-24T08:49:17;98669.50;;;16.50;100.00
9905;BME280;4991;43.566;27.820;2023-04-24T08:51:44;98677.53;;;16.55;100.00
9905;BME280;4991;43.566;27.820;2023-04-24T08:54:11;98672.50;;;16.57;100.00
9905;BME280;4991;43.566;27.820;2023-04-24T08:56:38;98667.47;;;16.59;100.00
9905;BME280;4991;43.566;27.820;2023-04-24T08:59:06;98666.28;;;16.60;100.00
9905;BME280;4991;43.566;27.820;2023-04-24T09:01:32;98663.53;;;16.72;100.00
9905;BME280;4991;43.566;27.820;2023-04-24T09:04:04;98659.59;;;16.86;100.00
9905;BME280;4991;43.566;27.820;2023-04-24T09:06:32;98668.44;;;16.91;100.00
9905;BME280;4991;43.566;27.820;2023-04-24T09:09:01;98669.53;;;17.02;100.00
9905;BME280;4991;43.566;27.820;2023-04-24T09:11:30;98660.31;;;16.83;100.00
9905;BME280;4991;43.566;27.820;2023-04-24T09:13:56;98663.94;;;16.87;100.00
9905;BME280;4991;43.566;27.820;2023-04-24T09:16:22;98664.16;;;16.94;100.00
9905;BME280;4991;43.566;27.820;2023-04-24T09:18:50;98660.84;;;16.88;100.00
9905;BME280;4991;43.566;27.820;2023-04-24T09:21:15;98657.97;;;16.97;100.00
9905;BME280;4991;43.566;27.820;2023-04-24T09:23:41;98659.97;;;17.12;100.00
9905;BME280;4991;43.566;27.820;2023-04-24T09:26:09;98661.88;;;17.23;100.00
9905;BME280;4991;43.566;27.820;2023-04-24T09:28:39;98664.28;;;17.25;100.00
9905;BME280;4991;43.566;27.820;2023-04-24T09:31:13;98651.78;;;17.27;100.00
9905;BME280;4991;43.566;27.820;2023-04-24T09:33:59;98652.13;;;17.53;100.00
9905;BME280;4991;43.566;27.820;2023-04-24T09:36:36;98646.22;;;18.98;100.00
9905;BME280;4991;43.566;27.820;2023-04-24T09:39:09;98648.19;;;20.72;100.00
9905;BME280;4991;43.566;27.820;2023-04-24T09:41:50;98659.63;;;21.99;83.93
9905;BME280;4991;43.566;27.820;2023-04-24T09:44:17;98652.59;;;22.56;79.91
9905;BME280;4991;43.566;27.820;2023-04-24T09:46:45;98648.75;;;23.43;73.17
9905;BME280;4991;43.566;27.820;2023-04-24T09:49:15;98651.66;;;24.76;66.35
9905;BME280;4991;43.566;27.820;2023-04-24T09:51:41;98646.06;;;24.87;61.30
9905;BME280;4991;43.566;27.820;2023-04-24T09:54:14;98653.22;;;24.95;57.90
9905;BME280;4991;43.566;27.820;2023-04-24T09:56:45;98652.72;;;25.24;57.86
9905;BME280;4991;43.566;27.820;2023-04-24T09:59:18;98646.00;;;25.04;56.09
9905;BME280;4991;43.566;27.820;2023-04-24T10:01:45;98643.28;;;24.94;56.50
9905;BME280;4991;43.566;27.820;2023-04-24T10:04:20;98635.13;;;25.49;55.83
9905;BME280;4991;43.566;27.820;2023-04-24T10:06:48;98644.34;;;25.31;58.50
9905;BME280;4991;43.566;27.820;2023-04-24T10:09:15;98635.47;;;25.54;54.20
9905;BME280;4991;43.566;27.820;2023-04-24T10:11:47;98637.66;;;25.04;54.87
9905;BME280;4991;43.566;27.820;2023-04-24T10:14:21;98645.50;;;25.30;54.28
9905;BME280;4991;43.566;27.820;2023-04-24T10:16:47;98640.19;;;25.68;52.38
9905;BME280;4991;43.566;27.820;2023-04-24T10:19:14;98644.78;;;26.02;52.36
9905;BME280;4991;43.566;27.820;2023-04-24T10:21:41;98629.75;;;27.48;50.71
9905;BME280;4991;43.566;27.820;2023-04-24T10:24:08;98630.34;;;26.99;50.30
9905;BME280;4991;43.566;27.820;2023-04-24T10:26:35;98622.41;;;26.06;52.90
9905;BME280;4991;43.566;27.820;2023-04-24T10:29:02;98632.25;;;27.06;50.17
9905;BME280;4991;43.566;27.820;2023-04-24T10:31:31;98622.03;;;27.56;48.77
9905;BME280;4991;43.566;27.820;2023-04-24T10:33:59;98622.69;;;27.67;48.30
9905;BME280;4991;43.566;27.820;2023-04-24T10:36:27;98626.34;;;26.59;50.05
9905;BME280;4991;43.566;27.820;2023-04-24T10:38:56;98625.63;;;26.93;51.43
9905;BME280;4991;43.566;27.820;2023-04-24T10:41:25;98621.06;;;26.68;49.84
9905;BME280;4991;43.566;27.820;2023-04-24T10:44:11;98613.88;;;26.27;50.78
9905;BME280;4991;43.566;27.820;2023-04-24T10:46:38;98619.78;;;26.36;50.11
9905;BME280;4991;43.566;27.820;2023-04-24T10:49:07;98621.09;;;25.63;51.62
9905;BME280;4991;43.566;27.820;2023-04-24T10:51:51;98609.56;;;25.57;52.23
9905;BME280;4991;43.566;27.820;2023-04-24T10:56:51;98614.03;;;26.09;51.42
9905;BME280;4991;43.566;27.820;2023-04-24T10:59:27;98603.03;;;27.10;48.27
9905;BME280;4991;43.566;27.820;2023-04-24T11:01:54;98603.59;;;27.62;46.95
9905;BME280;4991;43.566;27.820;2023-04-24T11:04:30;98605.56;;;27.35;47.48
9905;BME280;4991;43.566;27.820;2023-04-24T11:07:06;98600.06;;;26.94;45.10
9905;BME280;4991;43.566;27.820;2023-04-24T11:09:33;98602.50;;;25.97;47.80
9905;BME280;4991;43.566;27.820;2023-04-24T11:12:10;98598.06;;;26.10;47.77
9905;BME280;4991;43.566;27.820;2023-04-24T11:15:00;98590.03;;;27.30;44.96
9905;BME280;4991;43.566;27.820;2023-04-24T11:20:07;98593.00;;;28.26;43.11
9905;BME280;4991;43.566;27.820;2023-04-24T11:22:34;98600.25;;;27.10;42.85
9905;BME280;4991;43.566;27.820;2023-04-24T11:25:01;98579.91;;;26.32;44.72
9905;BME280;4991;43.566;27.820;2023-04-24T11:27:30;98597.56;;;26.66;44.46
9905;BME280;4991;43.566;27.820;2023-04-24T11:35:00;98578.28;;;26.38;43.21
9905;BME280;4991;43.566;27.820;2023-04-24T11:37:29;98583.47;;;26.77;44.21
9905;BME280;4991;43.566;27.820;2023-04-24T11:39:58;98569.06;;;27.12;43.48
9905;BME280;4991;43.566;27.820;2023-04-24T11:42:24;98568.59;;;26.49;45.06
9905;BME280;4991;43.566;27.820;2023-04-24T11:44:54;98570.06;;;27.85;42.85
9905;BME280;4991;43.566;27.820;2023-04-24T11:47:31;98569.44;;;28.24;41.93
9905;BME280;4991;43.566;27.820;2023-04-24T11:49:59;98575.53;;;27.39;41.38
9905;BME280;4991;43.566;27.820;2023-04-24T11:52:26;98562.88;;;27.27;42.37
9905;BME280;4991;43.566;27.820;2023-04-24T11:54:52;98570.53;;;27.80;40.85
9905;BME280;4991;43.566;27.820;2023-04-24T11:57:22;98559.06;;;27.14;41.13
9905;BME280;4991;43.566;27.820;2023-04-24T11:59:49;98576.59;;;26.03;41.69
9905;BME280;4991;43.566;27.820;2023-04-24T12:02:25;98562.75;;;25.86;41.80
9905;BME280;4991;43.566;27.820;2023-04-24T12:04:52;98570.38;;;25.82;42.10
9905;BME280;4991;43.566;27.820;2023-04-24T12:07:19;98561.53;;;26.38;41.22
9905;BME280;4991;43.566;27.820;2023-04-24T12:09:47;98558.81;;;27.02;42.41
9905;BME280;4991;43.566;27.820;2023-04-24T12:12:14;98555.75;;;27.53;39.29
9905;BME280;4991;43.566;27.820;2023-04-24T12:14:50;98548.81;;;27.61;39.84
9905;BME280;4991;43.566;27.820;2023-04-24T12:17:17;98546.06;;;27.01;40.60
9905;BME280;4991;43.566;27.820;2023-04-24T12:19:48;98532.72;;;27.95;39.64
9905;BME280;4991;43.566;27.820;2023-04-24T12:22:14;98535.91;;;27.70;39.44
9905;BME280;4991;43.566;27.820;2023-04-24T12:25:02;98533.53;;;26.82;40.36
9905;BME280;4991;43.566;27.820;2023-04-24T12:27:30;98527.13;;;27.12;40.95
9905;BME280;4991;43.566;27.820;2023-04-24T12:29:57;98525.09;;;28.42;39.46
9905;BME280;4991;43.566;27.820;2023-04-24T12:32:23;98528.66;;;28.00;40.54
9905;BME280;4991;43.566;27.820;2023-04-24T12:34:51;98518.84;;;27.05;41.05
9905;BME280;4991;43.566;27.820;2023-04-24T12:37:17;98524.66;;;26.16;42.54
9905;BME280;4991;43.566;27.820;2023-04-24T12:42:29;98528.47;;;27.60;39.94
9905;BME280;4991;43.566;27.820;2023-04-24T12:45:04;98524.41;;;27.88;40.26
9905;BME280;4991;43.566;27.820;2023-04-24T12:47:31;98523.00;;;26.59;42.28
9905;BME280;4991;43.566;27.820;2023-04-24T12:49:57;98508.25;;;26.55;43.30
9905;BME280;4991;43.566;27.820;2023-04-24T12:52:24;98522.81;;;25.96;44.05
9905;BME280;4991;43.566;27.820;2023-04-24T12:54:53;98514.81;;;26.38;43.11
9905;BME280;4991;43.566;27.820;2023-04-24T12:57:20;98500.19;;;27.28;43.07
9905;BME280;4991;43.566;27.820;2023-04-24T12:59:46;98496.53;;;27.01;40.14
9905;BME280;4991;43.566;27.820;2023-04-24T13:02:12;98501.19;;;25.56;43.02
9905;BME280;4991;43.566;27.820;2023-04-24T13:04:38;98500.78;;;26.08;42.01
9905;BME280;4991;43.566;27.820;2023-04-24T13:07:04;98489.41;;;26.29;42.23
9905;BME280;4991;43.566;27.820;2023-04-24T13:09:30;98499.81;;;26.25;41.93
9905;BME280;4991;43.566;27.820;2023-04-24T13:11:56;98499.06;;;26.92;41.93
9905;BME280;4991;43.566;27.820;2023-04-24T13:14:22;98491.97;;;26.84;41.13
9905;BME280;4991;43.566;27.820;2023-04-24T13:16:48;98492.34;;;27.69;39.93
9905;BME280;4991;43.566;27.820;2023-04-24T13:19:14;98492.59;;;27.78;39.66